Time;durP1;ratioP1;P1;durP2;ratioP2;P2;SDS_P1;SDS_P2;PMS_P1;PMS_P2;Temp;Humidity;BMP_temperature;BMP_pressure;BME280_temperature;BME280_humidity;BME280_pressure;Samples;Min_cycle;Max_cycle;Signal;HPM_P1;HPM_P2
2020/12/22 00:00:48;;;;;;;0.53;0.53;;;13.70;96.60;;;;;;5013818;28;20537;-73
2020/12/22 00:03:15;;;;;;;0.70;0.33;;;13.70;96.30;;;;;;5013847;28;20451;-73
2020/12/22 00:05:41;;;;;;;1.17;0.40;;;13.70;96.40;;;;;;5013872;28;20451;-73
2020/12/22 00:08:12;;;;;;;0.87;0.40;;;13.70;96.20;;;;;;5013764;28;20533;-73
2020/12/22 00:10:38;;;;;;;0.93;0.37;;;13.70;96.20;;;;;;5013719;28;20471;-72
2020/12/22 00:13:04;;;;;;;1.33;0.40;;;13.70;96.30;;;;;;5013650;28;20436;-73
2020/12/22 00:15:31;;;;;;;1.23;0.33;;;13.70;96.30;;;;;;5013529;28;20447;-73
2020/12/22 00:17:57;;;;;;;1.17;0.57;;;13.70;96.30;;;;;;5013774;28;20443;-73
2020/12/22 00:20:24;;;;;;;0.40;0.30;;;13.80;96.20;;;;;;5013532;28;20455;-72
2020/12/22 00:22:51;;;;;;;0.40;0.40;;;13.80;96.20;;;;;;5013573;28;20455;-72
2020/12/22 00:25:17;;;;;;;0.70;0.33;;;13.80;96.10;;;;;;5013427;28;20542;-72
2020/12/22 00:27:43;;;;;;;2.57;0.50;;;13.90;96.20;;;;;;5013008;28;20997;-73
2020/12/22 00:30:10;;;;;;;0.67;0.60;;;13.90;96.00;;;;;;5013304;28;20443;-73
2020/12/22 00:32:36;;;;;;;4.20;0.57;;;13.90;96.00;;;;;;5013399;28;20431;-72
2020/12/22 00:35:02;;;;;;;0.40;0.40;;;13.90;95.90;;;;;;5012978;28;20451;-72
2020/12/22 00:37:30;;;;;;;0.90;0.40;;;13.90;95.90;;;;;;5012900;28;20456;-73
2020/12/22 00:39:56;;;;;;;0.60;0.30;;;14.00;96.00;;;;;;5012967;28;20628;-72
2020/12/22 00:42:22;;;;;;;0.40;0.30;;;14.00;95.80;;;;;;5013117;28;20467;-72
2020/12/22 00:44:48;;;;;;;0.50;0.33;;;14.00;95.70;;;;;;5013302;28;20474;-72
2020/12/22 00:47:14;;;;;;;0.63;0.30;;;14.00;95.70;;;;;;5012980;28;20506;-72
2020/12/22 00:49:40;;;;;;;0.50;0.30;;;14.00;95.80;;;;;;5013313;28;20455;-72
2020/12/22 00:52:07;;;;;;;0.40;0.40;;;14.00;95.70;;;;;;5013248;28;20470;-72
2020/12/22 00:54:34;;;;;;;0.50;0.50;;;14.10;95.70;;;;;;5013232;28;20451;-72
2020/12/22 00:57:00;;;;;;;0.47;0.43;;;14.10;95.70;;;;;;5013277;28;20494;-72
2020/12/22 00:59:26;;;;;;;1.00;0.60;;;14.10;95.60;;;;;;5013268;28;20443;-72
2020/12/22 01:01:52;;;;;;;0.70;0.40;;;14.20;95.70;;;;;;5013092;28;20837;-72
2020/12/22 01:04:18;;;;;;;0.60;0.60;;;14.10;95.60;;;;;;5013204;28;20435;-72
2020/12/22 01:06:45;;;;;;;0.40;0.40;;;14.20;95.70;;;;;;5013016;28;20559;-72
2020/12/22 01:09:11;;;;;;;0.43;0.40;;;14.20;95.60;;;;;;5013074;28;20448;-72
2020/12/22 01:11:39;;;;;;;1.13;0.70;;;14.20;95.70;;;;;;5012887;28;20478;-72
2020/12/22 01:14:05;;;;;;;0.80;0.50;;;14.20;95.60;;;;;;5012940;28;20451;-72
2020/12/22 01:16:32;;;;;;;1.23;0.40;;;14.30;95.60;;;;;;5012772;28;20782;-73
2020/12/22 01:18:58;;;;;;;0.43;0.43;;;14.30;95.60;;;;;;5012916;28;20462;-73
2020/12/22 01:21:24;;;;;;;1.10;0.53;;;14.30;95.70;;;;;;5012975;28;20471;-72
2020/12/22 01:23:50;;;;;;;0.83;0.50;;;14.30;95.70;;;;;;5012970;28;20451;-72
2020/12/22 01:26:21;;;;;;;0.40;0.40;;;14.30;95.80;;;;;;5015074;28;20443;-72
2020/12/22 01:28:48;;;;;;;1.33;0.50;;;14.30;96.00;;;;;;5016598;28;20442;-72
2020/12/22 01:31:21;;;;;;;1.50;0.60;;;14.30;96.00;;;;;;5016468;28;20467;-72
2020/12/22 01:33:47;;;;;;;0.60;0.40;;;14.30;96.10;;;;;;5016611;28;20797;-72
2020/12/22 01:36:13;;;;;;;0.80;0.60;;;14.30;96.10;;;;;;5016210;28;20470;-72
2020/12/22 01:38:39;;;;;;;2.20;0.60;;;14.30;96.20;;;;;;5016458;28;20470;-72
2020/12/22 01:41:06;;;;;;;1.53;0.60;;;14.30;96.10;;;;;;5016295;28;20501;-72
2020/12/22 01:43:32;;;;;;;1.30;0.83;;;14.30;96.20;;;;;;5016267;28;20443;-72
2020/12/22 01:45:59;;;;;;;1.30;0.90;;;14.30;96.10;;;;;;5016245;28;20451;-72
2020/12/22 01:48:26;;;;;;;2.10;0.60;;;14.30;96.10;;;;;;5016253;28;20483;-72
2020/12/22 01:50:52;;;;;;;3.00;0.77;;;14.30;96.10;;;;;;5016169;28;20471;-72
2020/12/22 01:53:18;;;;;;;1.67;0.50;;;14.30;96.20;;;;;;5015891;28;20946;-72
2020/12/22 01:55:45;;;;;;;0.80;0.50;;;14.30;96.10;;;;;;5016186;28;20466;-72
2020/12/22 01:58:11;;;;;;;1.90;0.70;;;14.30;96.10;;;;;;5016056;28;20444;-72
2020/12/22 02:00:37;;;;;;;2.50;0.60;;;14.40;96.20;;;;;;5015963;28;20493;-72
2020/12/22 02:03:06;;;;;;;2.37;0.67;;;14.30;96.30;;;;;;5015991;28;20574;-72
2020/12/22 02:05:33;;;;;;;0.70;0.70;;;14.40;96.50;;;;;;5015854;28;20486;-72
2020/12/22 02:07:59;;;;;;;2.53;0.90;;;14.30;96.80;;;;;;5016257;28;20486;-72
2020/12/22 02:10:25;;;;;;;0.97;0.67;;;14.30;96.90;;;;;;5015750;28;20451;-72
2020/12/22 02:12:51;;;;;;;1.77;0.50;;;14.30;97.00;;;;;;5015837;28;20475;-72
2020/12/22 02:15:18;;;;;;;3.10;0.93;;;14.30;97.00;;;;;;5015449;28;20451;-72
2020/12/22 02:17:45;;;;;;;6.33;1.13;;;14.30;97.00;;;;;;5015694;28;20816;-72
2020/12/22 02:20:12;;;;;;;0.80;0.60;;;14.30;97.00;;;;;;5015521;28;20455;-72
2020/12/22 02:22:40;;;;;;;0.83;0.73;;;14.20;97.10;;;;;;5015501;28;20443;-72
2020/12/22 02:25:13;;;;;;;1.40;0.60;;;14.30;97.10;;;;;;5015534;28;20470;-72
2020/12/22 02:27:40;;;;;;;0.90;0.70;;;14.20;97.10;;;;;;5015483;28;20482;-72
2020/12/22 02:30:06;;;;;;;2.20;0.70;;;14.20;97.30;;;;;;5015443;28;20498;-72
2020/12/22 02:32:33;;;;;;;2.20;0.67;;;14.20;97.30;;;;;;5015378;28;20463;-72
2020/12/22 02:34:59;;;;;;;1.57;0.70;;;14.20;97.30;;;;;;5015301;28;20477;-72
2020/12/22 02:37:25;;;;;;;2.20;0.70;;;14.20;97.40;;;;;;5014951;28;20455;-72
2020/12/22 02:39:52;;;;;;;6.47;1.53;;;14.20;97.50;;;;;;5015217;28;20450;-72
2020/12/22 02:42:18;;;;;;;2.70;0.70;;;14.20;97.80;;;;;;5015151;28;20471;-72
2020/12/22 02:44:45;;;;;;;1.37;0.80;;;14.20;98.00;;;;;;5015109;28;20451;-72
2020/12/22 02:47:13;;;;;;;1.70;0.93;;;14.20;98.10;;;;;;5015014;28;20491;-72
2020/12/22 02:49:40;;;;;;;1.30;0.60;;;14.10;98.00;;;;;;5014972;28;20502;-72
2020/12/22 02:52:06;;;;;;;0.70;0.70;;;14.10;98.20;;;;;;5014995;28;20849;-72
2020/12/22 02:54:32;;;;;;;2.03;0.70;;;14.10;98.10;;;;;;5014923;28;20452;-72
2020/12/22 02:56:59;;;;;;;0.93;0.90;;;14.10;98.10;;;;;;5014908;28;20494;-72
2020/12/22 02:59:26;;;;;;;4.10;0.73;;;14.20;98.20;;;;;;5014883;28;20454;-72
2020/12/22 03:01:52;;;;;;;2.33;0.93;;;14.20;98.10;;;;;;5014804;28;20835;-72
2020/12/22 03:04:18;;;;;;;1.63;0.70;;;14.20;98.10;;;;;;5014814;28;20454;-72
2020/12/22 03:06:45;;;;;;;1.20;0.60;;;14.20;97.90;;;;;;5014775;28;20479;-72
2020/12/22 03:09:11;;;;;;;1.10;0.70;;;14.20;97.70;;;;;;5014730;28;20454;-72
2020/12/22 03:11:37;;;;;;;0.90;0.50;;;14.30;97.90;;;;;;5014357;28;20989;-72
2020/12/22 03:14:04;;;;;;;1.80;0.60;;;14.30;97.50;;;;;;5014701;28;20459;-72
2020/12/22 03:16:31;;;;;;;1.10;0.70;;;14.30;97.30;;;;;;5014722;28;20478;-72
2020/12/22 03:18:57;;;;;;;1.00;0.60;;;14.30;97.20;;;;;;5014627;28;20451;-72
2020/12/22 03:21:23;;;;;;;0.63;0.50;;;14.40;97.20;;;;;;5014596;28;20524;-72
2020/12/22 03:23:50;;;;;;;0.47;0.47;;;14.40;97.20;;;;;;5014461;28;20448;-72
2020/12/22 03:26:16;;;;;;;1.73;0.80;;;14.40;97.10;;;;;;5014419;28;20538;-72
2020/12/22 03:28:42;;;;;;;2.40;0.70;;;14.50;97.00;;;;;;5014422;28;20448;-72
2020/12/22 03:31:09;;;;;;;1.37;0.70;;;14.50;96.90;;;;;;5014338;28;20474;-72
2020/12/22 03:33:35;;;;;;;1.87;0.80;;;14.50;96.80;;;;;;5014098;28;20451;-72
2020/12/22 03:36:01;;;;;;;1.73;0.77;;;14.60;96.70;;;;;;5014207;28;20455;-72
2020/12/22 03:38:28;;;;;;;1.33;0.60;;;14.60;96.60;;;;;;5014292;28;20439;-72
2020/12/22 03:40:54;;;;;;;1.57;0.80;;;14.60;96.50;;;;;;5014216;28;20467;-72
2020/12/22 03:43:20;;;;;;;0.87;0.53;;;14.60;96.50;;;;;;5014138;28;20539;-72
2020/12/22 03:45:49;;;;;;;1.77;0.57;;;14.60;96.30;;;;;;5014151;28;20447;-72
2020/12/22 03:48:16;;;;;;;0.83;0.50;;;14.60;96.30;;;;;;5013802;28;20491;-72
2020/12/22 03:50:42;;;;;;;0.53;0.53;;;14.60;96.30;;;;;;5014138;28;20805;-72
2020/12/22 03:53:09;;;;;;;0.70;0.40;;;14.70;96.30;;;;;;5013829;28;20448;-72
2020/12/22 03:55:35;;;;;;;1.13;1.03;;;14.60;96.20;;;;;;5014051;28;20447;-72
2020/12/22 03:58:01;;;;;;;0.90;0.40;;;14.60;96.20;;;;;;5013984;28;20443;-72
2020/12/22 04:00:27;;;;;;;2.53;0.40;;;14.70;96.40;;;;;;5013672;28;20937;-72
2020/12/22 04:02:53;;;;;;;3.13;0.57;;;14.70;96.40;;;;;;5013750;28;20443;-72
2020/12/22 04:05:20;;;;;;;1.73;0.50;;;14.70;96.50;;;;;;5013756;28;20945;-72
2020/12/22 04:07:47;;;;;;;1.30;0.57;;;14.70;96.60;;;;;;5013499;28;20964;-72
2020/12/22 04:10:13;;;;;;;0.63;0.50;;;14.70;96.70;;;;;;5013810;28;20447;-72
2020/12/22 04:12:39;;;;;;;0.60;0.60;;;14.70;96.80;;;;;;5013854;28;20432;-72
2020/12/22 04:15:06;;;;;;;0.57;0.57;;;14.70;97.10;;;;;;5013775;28;20497;-72
2020/12/22 04:17:32;;;;;;;1.17;0.57;;;14.60;97.20;;;;;;5013925;28;20451;-72
2020/12/22 04:19:58;;;;;;;2.20;0.57;;;14.60;97.50;;;;;;5013762;28;20447;-72
2020/12/22 04:22:25;;;;;;;2.23;0.70;;;14.60;98.20;;;;;;5013665;28;20467;-72
2020/12/22 04:24:52;;;;;;;1.70;0.47;;;14.50;98.20;;;;;;5013678;28;20447;-72
2020/12/22 04:27:18;;;;;;;3.30;0.60;;;14.50;98.60;;;;;;5013523;28;20480;-72
2020/12/22 04:29:44;;;;;;;0.60;0.40;;;14.50;98.90;;;;;;5013627;28;20450;-73
2020/12/22 04:32:10;;;;;;;0.70;0.57;;;14.40;98.80;;;;;;5013688;28;20463;-72
2020/12/22 04:34:36;;;;;;;1.40;0.50;;;14.40;98.90;;;;;;5013677;28;20453;-72
2020/12/22 04:37:03;;;;;;;1.80;0.47;;;14.40;99.00;;;;;;5013365;28;20792;-72
2020/12/22 04:39:30;;;;;;;1.37;0.60;;;14.40;98.90;;;;;;5013700;28;20450;-72
2020/12/22 04:41:58;;;;;;;1.00;0.37;;;14.40;98.90;;;;;;5013420;28;20990;-72
2020/12/22 04:44:24;;;;;;;3.50;0.50;;;14.40;98.60;;;;;;5013767;28;20521;-72
2020/12/22 04:46:52;;;;;;;1.47;0.40;;;14.40;98.60;;;;;;5013743;28;20475;-72
2020/12/22 04:49:22;;;;;;;0.83;0.40;;;14.40;98.40;;;;;;5013650;28;20447;-72
2020/12/22 04:51:50;;;;;;;0.40;0.30;;;14.50;97.90;;;;;;5013434;28;20476;-72
2020/12/22 04:54:18;;;;;;;1.17;0.53;;;14.60;97.80;;;;;;5013597;28;20451;-72
2020/12/22 04:56:46;;;;;;;0.50;0.40;;;14.60;97.80;;;;;;5013453;28;20502;-72
2020/12/22 04:59:13;;;;;;;0.40;0.30;;;14.60;97.70;;;;;;5013071;28;20825;-72
2020/12/22 05:01:41;;;;;;;1.27;0.40;;;14.60;97.70;;;;;;5015750;28;20980;-72
2020/12/22 05:04:09;;;;;;;0.40;0.40;;;14.60;97.80;;;;;;5017046;28;20474;-72
2020/12/22 05:06:35;;;;;;;0.50;0.50;;;14.70;97.70;;;;;;5016913;28;20470;-72
2020/12/22 05:09:01;;;;;;;1.03;0.50;;;14.70;97.70;;;;;;5016663;28;20941;-72
2020/12/22 05:11:28;;;;;;;0.70;0.40;;;14.60;97.70;;;;;;5016951;28;20470;-72
2020/12/22 05:13:57;;;;;;;0.40;0.30;;;14.70;97.80;;;;;;5016882;28;20486;-72
2020/12/22 05:16:26;;;;;;;0.50;0.40;;;14.70;97.70;;;;;;5016930;28;20451;-72
2020/12/22 05:18:54;;;;;;;1.43;0.50;;;14.70;97.70;;;;;;5017463;28;20451;-72
2020/12/22 05:21:21;;;;;;;1.07;0.53;;;14.70;97.60;;;;;;5016327;28;20502;-72
2020/12/22 05:23:49;;;;;;;0.50;0.33;;;14.70;97.50;;;;;;5016786;28;20435;-72
2020/12/22 05:26:18;;;;;;;0.97;0.30;;;14.70;97.70;;;;;;5016619;28;20458;-72
2020/12/22 05:28:44;;;;;;;1.47;0.40;;;14.70;97.30;;;;;;5016625;28;20529;-72
2020/12/22 05:31:14;;;;;;;0.70;0.40;;;14.70;97.30;;;;;;5016610;28;20475;-72
2020/12/22 05:33:44;;;;;;;0.40;0.30;;;14.70;97.30;;;;;;5016386;28;20936;-72
2020/12/22 05:36:10;;;;;;;0.50;0.43;;;14.70;97.40;;;;;;5016290;28;20463;-72
2020/12/22 05:38:38;;;;;;;0.57;0.30;;;14.70;97.50;;;;;;5016578;28;20439;-72
2020/12/22 05:41:05;;;;;;;0.83;0.30;;;14.70;97.30;;;;;;5016131;28;20467;-72
2020/12/22 05:43:37;;;;;;;0.53;0.30;;;14.70;97.30;;;;;;5016817;28;20444;-72
2020/12/22 05:46:04;;;;;;;1.17;0.50;;;14.80;97.30;;;;;;5016329;28;20436;-72
2020/12/22 05:48:31;;;;;;;0.97;0.40;;;14.70;97.20;;;;;;5016344;28;20486;-72
2020/12/22 05:51:01;;;;;;;0.40;0.30;;;14.80;97.20;;;;;;5015879;28;20526;-72
2020/12/22 05:53:28;;;;;;;0.50;0.30;;;14.70;97.30;;;;;;5015925;28;20954;-72
2020/12/22 05:55:55;;;;;;;0.63;0.40;;;14.80;97.50;;;;;;5016201;28;20455;-72
2020/12/22 05:58:30;;;;;;;0.40;0.30;;;14.80;97.50;;;;;;5016325;28;20811;-72
2020/12/22 06:00:56;;;;;;;1.83;0.30;;;14.80;97.60;;;;;;5016132;28;20470;-73
2020/12/22 06:03:23;;;;;;;0.83;0.50;;;14.70;97.80;;;;;;5016055;28;20443;-72
2020/12/22 06:05:51;;;;;;;0.70;0.50;;;14.70;97.70;;;;;;5016014;28;20452;-72
2020/12/22 06:08:17;;;;;;;0.50;0.50;;;14.70;97.60;;;;;;5015645;28;20973;-72
2020/12/22 06:10:44;;;;;;;1.03;0.60;;;14.70;97.60;;;;;;5015732;28;20478;-72
2020/12/22 06:13:12;;;;;;;1.83;0.50;;;14.70;97.80;;;;;;5015797;28;20443;-72
2020/12/22 06:15:38;;;;;;;0.40;0.40;;;14.70;97.90;;;;;;5015844;28;20443;-72
2020/12/22 06:18:06;;;;;;;1.00;0.60;;;14.70;98.40;;;;;;5015766;28;20450;-72
2020/12/22 06:20:32;;;;;;;0.60;0.50;;;14.60;98.50;;;;;;5015273;28;20451;-72
2020/12/22 06:23:05;;;;;;;1.37;0.60;;;14.60;98.70;;;;;;5015378;28;20439;-72
2020/12/22 06:25:31;;;;;;;1.10;0.53;;;14.60;98.80;;;;;;5015638;28;20448;-72
2020/12/22 06:27:58;;;;;;;0.60;0.40;;;14.50;98.80;;;;;;5015877;28;20479;-72
2020/12/22 06:30:35;;;;;;;0.80;0.40;;;14.60;98.80;;;;;;5015890;28;20470;-72
2020/12/22 06:33:17;;;;;;;0.60;0.50;;;14.50;99.10;;;;;;5015872;28;20432;-72
2020/12/22 06:36:00;;;;;;;0.73;0.63;;;14.50;99.30;;;;;;5015635;28;20470;-72
2020/12/22 06:38:56;;;;;;;1.70;0.80;;;14.50;99.30;;;;;;5015794;28;20456;-72
2020/12/22 06:41:43;;;;;;;0.60;0.50;;;14.40;99.60;;;;;;5012550;28;20475;-72
2020/12/22 06:44:14;;;;;;;0.60;0.60;;;14.40;99.90;;;;;;5015300;28;20498;-72
2020/12/22 06:46:42;;;;;;;0.70;0.60;;;14.40;99.90;;;;;;5015155;28;20451;-72
2020/12/22 06:49:09;;;;;;;1.43;0.83;;;14.40;99.90;;;;;;5015183;28;20494;-72
2020/12/22 06:51:37;;;;;;;0.70;0.47;;;14.40;99.90;;;;;;5015166;28;20467;-72
2020/12/22 06:54:04;;;;;;;1.00;0.60;;;14.30;99.90;;;;;;5015068;28;20494;-72
2020/12/22 06:56:42;;;;;;;0.70;0.60;;;14.40;99.90;;;;;;5014990;28;20451;-72
2020/12/22 06:59:09;;;;;;;1.27;0.60;;;14.30;99.90;;;;;;5014956;28;20450;-73
2020/12/22 07:01:37;;;;;;;0.70;0.53;;;14.30;99.90;;;;;;5015002;28;20470;-72
2020/12/22 07:04:15;;;;;;;0.90;0.63;;;14.30;99.80;;;;;;5014938;28;20809;-72
2020/12/22 07:06:58;;;;;;;0.77;0.60;;;14.30;99.70;;;;;;5014867;28;20500;-72
2020/12/22 07:09:27;;;;;;;2.23;0.60;;;14.40;99.40;;;;;;5014607;28;20853;-72
2020/12/22 07:11:57;;;;;;;2.60;0.83;;;14.30;98.80;;;;;;5014846;28;20533;-72
2020/12/22 07:14:24;;;;;;;0.90;0.67;;;14.40;98.60;;;;;;5014508;28;20438;-72
2020/12/22 07:16:55;;;;;;;2.10;0.60;;;14.40;98.30;;;;;;5014659;28;20443;-72
2020/12/22 07:19:28;;;;;;;1.33;0.70;;;14.50;98.30;;;;;;5015003;28;20443;-72
2020/12/22 07:21:54;;;;;;;1.33;1.10;;;14.50;98.20;;;;;;5014855;28;20562;-72
2020/12/22 07:24:21;;;;;;;1.00;0.63;;;14.50;98.00;;;;;;5013961;28;20451;-72
2020/12/22 07:26:47;;;;;;;0.70;0.70;;;14.50;97.90;;;;;;5014394;28;20455;-72
2020/12/22 07:29:14;;;;;;;1.37;0.63;;;14.50;97.90;;;;;;5014619;28;20830;-72
2020/12/22 07:31:42;;;;;;;2.57;1.30;;;14.50;97.90;;;;;;5014235;28;20463;-73
2020/12/22 07:34:10;;;;;;;0.80;0.80;;;14.50;98.20;;;;;;5014463;28;20451;-73
2020/12/22 07:36:36;;;;;;;2.13;0.93;;;14.50;98.30;;;;;;5014122;28;20553;-72
2020/12/22 07:39:14;;;;;;;2.17;1.03;;;14.50;98.30;;;;;;5014396;28;20440;-72
2020/12/22 07:41:41;;;;;;;1.50;0.90;;;14.50;98.10;;;;;;5014219;28;20836;-72
2020/12/22 07:44:08;;;;;;;0.90;0.90;;;14.50;97.80;;;;;;5014311;28;20517;-72
2020/12/22 07:46:35;;;;;;;1.40;0.70;;;14.50;97.60;;;;;;5014370;28;20427;-72
2020/12/22 07:49:03;;;;;;;4.53;1.17;;;14.50;97.40;;;;;;5014091;28;20482;-72
2020/12/22 07:51:30;;;;;;;3.13;0.80;;;14.50;97.20;;;;;;5014109;28;20470;-72
2020/12/22 07:54:06;;;;;;;1.80;0.60;;;14.50;97.10;;;;;;5014192;28;20455;-72
2020/12/22 07:56:34;;;;;;;1.10;0.80;;;14.50;97.00;;;;;;5014192;28;20431;-72
2020/12/22 07:59:03;;;;;;;0.70;0.60;;;14.50;96.80;;;;;;5014137;28;20447;-72
2020/12/22 08:01:38;;;;;;;1.50;0.60;;;14.50;96.70;;;;;;5013884;28;20554;-72
2020/12/22 08:04:12;;;;;;;0.90;0.53;;;14.60;96.60;;;;;;5013868;28;20435;-72
2020/12/22 08:06:39;;;;;;;2.03;0.60;;;14.60;96.50;;;;;;5013963;28;20818;-72
2020/12/22 08:09:05;;;;;;;1.93;0.80;;;14.60;96.40;;;;;;5013849;28;20479;-72
2020/12/22 08:11:32;;;;;;;2.73;1.17;;;14.60;96.40;;;;;;5013925;28;20463;-72
2020/12/22 08:13:58;;;;;;;1.30;1.13;;;14.60;96.50;;;;;;5013812;28;20447;-72
2020/12/22 08:16:25;;;;;;;4.20;1.03;;;14.60;96.50;;;;;;5013863;28;20459;-72
2020/12/22 08:18:53;;;;;;;1.30;1.20;;;14.60;96.60;;;;;;5013885;28;20450;-72
2020/12/22 08:21:20;;;;;;;0.70;0.60;;;14.60;96.50;;;;;;5013836;28;20474;-72
2020/12/22 08:23:48;;;;;;;1.67;0.77;;;14.60;96.60;;;;;;5013748;28;20447;-72
2020/12/22 08:26:18;;;;;;;0.80;0.80;;;14.60;96.60;;;;;;5013537;28;20443;-72
2020/12/22 08:28:52;;;;;;;1.03;1.03;;;14.60;97.00;;;;;;5013824;28;20463;-72
2020/12/22 08:31:22;;;;;;;1.30;0.83;;;14.60;97.60;;;;;;5013986;28;20467;-72
2020/12/22 08:33:52;;;;;;;1.03;1.03;;;14.50;98.40;;;;;;5014652;28;20431;-72
2020/12/22 08:36:20;;;;;;;1.93;1.40;;;14.40;99.00;;;;;;5018041;28;20867;-72
2020/12/22 08:38:47;;;;;;;3.27;1.20;;;14.30;99.30;;;;;;5018459;28;20448;-72
2020/12/22 08:41:18;;;;;;;3.03;1.20;;;14.30;99.50;;;;;;5018907;28;20463;-72
2020/12/22 08:43:48;;;;;;;1.77;1.53;;;14.30;99.50;;;;;;5017987;28;20431;-72
2020/12/22 08:46:15;;;;;;;1.47;1.30;;;14.30;99.40;;;;;;5018224;28;20428;-72
2020/12/22 08:48:42;;;;;;;1.60;1.10;;;14.40;99.30;;;;;;5017702;28;20462;-72
2020/12/22 08:51:09;;;;;;;2.03;1.00;;;14.30;99.00;;;;;;5017170;28;20989;-72
2020/12/22 08:53:36;;;;;;;2.10;1.10;;;14.40;98.60;;;;;;5017338;28;20500;-72
2020/12/22 08:56:07;;;;;;;1.80;1.20;;;14.40;98.30;;;;;;5017416;28;20454;-72
2020/12/22 08:58:33;;;;;;;3.00;1.30;;;14.50;97.90;;;;;;5016990;28;20448;-72
2020/12/22 09:01:00;;;;;;;2.80;1.27;;;14.50;97.70;;;;;;5017215;28;20474;-72
2020/12/22 09:03:27;;;;;;;2.40;0.90;;;14.50;97.30;;;;;;5016807;28;20971;-72
2020/12/22 09:05:53;;;;;;;2.63;1.10;;;14.50;97.10;;;;;;5017192;28;20447;-73
2020/12/22 09:08:21;;;;;;;1.10;0.87;;;14.50;96.80;;;;;;5017086;28;20479;-72
2020/12/22 09:10:47;;;;;;;0.77;0.77;;;14.60;96.50;;;;;;5017193;28;20482;-72
2020/12/22 09:13:15;;;;;;;1.00;0.83;;;14.60;96.00;;;;;;5016722;28;20977;-72
2020/12/22 09:15:52;;;;;;;4.10;1.07;;;14.60;95.40;;;;;;5016945;28;20435;-72
2020/12/22 09:18:19;;;;;;;0.83;0.43;;;14.70;95.30;;;;;;5016892;28;20427;-72
2020/12/22 09:21:01;;;;;;;2.70;0.90;;;14.70;95.10;;;;;;5016766;28;20470;-72
2020/12/22 09:23:28;;;;;;;1.13;0.70;;;14.70;94.90;;;;;;5016817;28;20450;-72
2020/12/22 09:25:54;;;;;;;1.33;0.60;;;14.70;94.80;;;;;;5016750;28;20443;-72
2020/12/22 09:28:21;;;;;;;1.53;0.80;;;14.70;95.00;;;;;;5016310;28;21042;-72
2020/12/22 09:30:47;;;;;;;0.80;0.73;;;14.70;94.90;;;;;;5016307;28;20463;-72
2020/12/22 09:33:14;;;;;;;0.70;0.70;;;14.70;94.80;;;;;;5016684;28;20446;-72
2020/12/22 09:35:40;;;;;;;1.37;0.80;;;14.70;95.00;;;;;;5016211;28;20466;-72
2020/12/22 09:38:06;;;;;;;3.30;1.10;;;14.70;94.90;;;;;;5016471;28;20451;-72
2020/12/22 09:40:33;;;;;;;1.00;0.77;;;14.80;95.00;;;;;;5016175;28;20945;-72
2020/12/22 09:42:59;;;;;;;2.43;1.50;;;14.80;95.00;;;;;;5016486;28;20427;-72
2020/12/22 09:45:26;;;;;;;1.53;0.83;;;14.70;95.10;;;;;;5016012;28;20537;-72
2020/12/22 09:47:52;;;;;;;1.83;0.80;;;14.70;95.30;;;;;;5015621;28;20479;-72
2020/12/22 09:50:18;;;;;;;2.87;1.43;;;14.70;95.60;;;;;;5016186;28;20447;-72
2020/12/22 09:52:44;;;;;;;1.87;1.23;;;14.70;95.90;;;;;;5016055;28;20451;-72
2020/12/22 09:55:13;;;;;;;1.40;1.30;;;14.70;96.60;;;;;;5016204;28;20443;-72
2020/12/22 09:57:40;;;;;;;1.63;1.53;;;14.60;97.00;;;;;;5015947;28;20419;-72
2020/12/22 10:00:06;;;;;;;2.30;1.70;;;14.60;97.80;;;;;;5016086;28;20454;-72
2020/12/22 10:02:32;;;;;;;2.40;1.90;;;14.60;97.60;;;;;;5016009;28;20877;-73
2020/12/22 10:04:58;;;;;;;4.03;1.70;;;14.60;97.60;;;;;;5016038;28;20451;-73
2020/12/22 10:07:24;;;;;;;2.50;1.90;;;14.60;97.60;;;;;;5015885;28;20476;-73
2020/12/22 10:09:51;;;;;;;2.23;1.50;;;14.60;97.70;;;;;;5015668;28;20432;-72
2020/12/22 10:12:17;;;;;;;2.70;1.57;;;14.70;97.60;;;;;;5015885;28;20575;-72
2020/12/22 10:14:44;;;;;;;1.80;1.70;;;14.70;97.10;;;;;;5015789;28;20443;-72
2020/12/22 10:17:10;;;;;;;4.83;1.67;;;14.70;97.10;;;;;;5015885;28;20435;-72
2020/12/22 10:19:36;;;;;;;2.73;1.27;;;14.80;96.70;;;;;;5015489;28;20450;-72
2020/12/22 10:22:02;;;;;;;3.37;1.80;;;14.80;96.30;;;;;;5015811;28;20522;-72
2020/12/22 10:24:29;;;;;;;2.43;1.20;;;14.90;96.20;;;;;;5015355;28;20451;-72
2020/12/22 10:26:55;;;;;;;1.33;1.10;;;14.90;95.60;;;;;;5015582;28;20471;-72
2020/12/22 10:29:21;;;;;;;1.33;0.87;;;14.90;95.50;;;;;;5015435;28;20490;-72
2020/12/22 10:31:48;;;;;;;2.63;1.23;;;14.90;95.00;;;;;;5015158;28;20470;-72
2020/12/22 10:34:14;;;;;;;1.30;0.93;;;15.00;95.00;;;;;;5015547;28;20454;-72
2020/12/22 10:36:40;;;;;;;1.30;0.90;;;15.00;94.80;;;;;;5015179;28;20841;-72
2020/12/22 10:39:06;;;;;;;1.20;0.50;;;15.10;94.40;;;;;;5015411;28;20423;-72
2020/12/22 10:41:34;;;;;;;1.37;0.70;;;15.20;93.70;;;;;;5014944;28;20467;-72
2020/12/22 10:44:01;;;;;;;1.70;0.70;;;15.30;93.90;;;;;;5015368;28;20801;-72
2020/12/22 10:46:27;;;;;;;0.60;0.60;;;15.30;93.10;;;;;;5015319;28;20443;-72
2020/12/22 10:48:54;;;;;;;0.90;0.53;;;15.40;93.20;;;;;;5015121;28;20476;-72
2020/12/22 10:51:20;;;;;;;1.37;0.80;;;15.40;92.90;;;;;;5015153;28;20468;-72
2020/12/22 10:53:46;;;;;;;5.20;1.00;;;15.50;93.00;;;;;;5015249;28;20459;-72
2020/12/22 10:56:14;;;;;;;2.23;0.80;;;15.50;92.40;;;;;;5014954;28;20934;-72
2020/12/22 10:58:42;;;;;;;1.30;0.70;;;15.50;92.50;;;;;;5014150;28;20791;-72
2020/12/22 11:01:08;;;;;;;3.63;1.30;;;15.50;92.30;;;;;;5015015;28;20550;-72
2020/12/22 11:03:34;;;;;;;2.77;0.80;;;15.40;92.50;;;;;;5014676;28;20463;-72
2020/12/22 11:06:08;;;;;;;0.80;0.80;;;15.50;92.40;;;;;;5014938;28;20506;-72
2020/12/22 11:08:34;;;;;;;0.90;0.60;;;15.60;92.30;;;;;;5014799;28;21019;-72
2020/12/22 11:11:00;;;;;;;1.27;0.90;;;15.60;92.10;;;;;;5014476;28;20982;-72
2020/12/22 11:13:26;;;;;;;0.97;0.97;;;15.60;91.60;;;;;;5014832;28;20451;-72
2020/12/22 11:15:54;;;;;;;0.90;0.50;;;15.70;91.70;;;;;;5014762;28;20447;-72
2020/12/22 11:18:20;;;;;;;0.70;0.70;;;15.60;91.10;;;;;;5014733;28;20451;-72
2020/12/22 11:20:46;;;;;;;1.40;0.50;;;15.60;90.70;;;;;;5014810;28;20467;-72
2020/12/22 11:23:13;;;;;;;0.57;0.53;;;15.50;91.20;;;;;;5014852;28;20798;-72
2020/12/22 11:25:39;;;;;;;2.57;0.63;;;15.50;91.00;;;;;;5015524;28;20452;-71
2020/12/22 11:28:06;;;;;;;1.23;0.70;;;15.60;90.80;;;;;;5014382;28;20478;-71
2020/12/22 11:30:32;;;;;;;1.77;0.67;;;15.70;90.60;;;;;;5014361;28;20443;-71
2020/12/22 11:32:58;;;;;;;1.00;0.70;;;15.70;90.40;;;;;;5016216;28;20428;-71
2020/12/22 11:35:24;;;;;;;0.50;0.50;;;15.80;90.40;;;;;;5016110;28;20913;-71
2020/12/22 11:37:51;;;;;;;1.70;0.40;;;15.90;90.10;;;;;;5015084;28;20482;-71
2020/12/22 11:40:18;;;;;;;0.80;0.53;;;15.90;90.10;;;;;;5015394;28;20498;-71
2020/12/22 11:42:44;;;;;;;1.60;0.57;;;15.90;90.20;;;;;;5014042;28;20957;-71
2020/12/22 11:45:10;;;;;;;0.50;0.47;;;15.80;90.10;;;;;;5014216;28;20440;-72
2020/12/22 11:47:36;;;;;;;0.60;0.60;;;15.80;90.50;;;;;;5014474;28;20471;-74
2020/12/22 11:50:05;;;;;;;1.42;0.50;;;15.80;91.00;;;;;;5014083;28;20446;-72
2020/12/22 11:52:31;;;;;;;2.53;0.70;;;15.80;90.80;;;;;;5013910;28;20431;-72
2020/12/22 11:54:57;;;;;;;2.37;1.60;;;16.00;90.60;;;;;;5013979;28;20527;-72
2020/12/22 11:57:24;;;;;;;1.47;0.60;;;16.00;90.30;;;;;;5013965;28;20937;-73
2020/12/22 11:59:51;;;;;;;2.73;0.53;;;15.90;90.10;;;;;;5014009;28;20818;-72
2020/12/22 12:02:18;;;;;;;0.63;0.40;;;15.70;90.00;;;;;;5014288;28;20559;-74
2020/12/22 12:04:44;;;;;;;0.70;0.50;;;15.60;90.50;;;;;;5016111;28;20458;-73
2020/12/22 12:07:12;;;;;;;1.43;0.50;;;15.50;90.60;;;;;;5014406;28;20435;-72
2020/12/22 12:09:39;;;;;;;1.63;0.57;;;15.40;91.10;;;;;;5014234;28;20526;-72
2020/12/22 12:12:05;;;;;;;0.73;0.70;;;15.40;91.50;;;;;;5013996;28;20521;-72
2020/12/22 12:14:32;;;;;;;1.40;0.60;;;15.50;91.20;;;;;;5013975;28;20450;-72
2020/12/22 12:16:58;;;;;;;1.73;0.80;;;15.50;91.10;;;;;;5013904;28;20446;-72
2020/12/22 12:19:26;;;;;;;1.13;0.70;;;15.50;91.40;;;;;;5013865;28;20809;-72
2020/12/22 12:21:55;;;;;;;2.30;0.60;;;15.50;91.30;;;;;;5013768;28;20583;-72
2020/12/22 12:24:21;;;;;;;2.30;0.40;;;15.50;91.30;;;;;;5013999;28;20450;-72
2020/12/22 12:26:47;;;;;;;2.37;0.70;;;15.50;91.00;;;;;;5013846;28;20450;-72
2020/12/22 12:29:13;;;;;;;1.63;0.40;;;15.50;90.30;;;;;;5013650;28;20494;-72
2020/12/22 12:31:40;;;;;;;1.70;0.40;;;15.40;90.40;;;;;;5013252;28;20973;-72
2020/12/22 12:34:07;;;;;;;0.83;0.53;;;15.40;90.10;;;;;;5013635;28;20447;-72
2020/12/22 12:36:33;;;;;;;1.43;0.50;;;15.20;90.30;;;;;;5013651;28;20459;-72
2020/12/22 12:38:59;;;;;;;0.53;0.40;;;15.20;90.30;;;;;;5013673;28;20451;-72
2020/12/22 12:41:26;;;;;;;2.10;0.50;;;15.10;90.60;;;;;;5013642;28;20474;-72
2020/12/22 12:43:52;;;;;;;0.67;0.30;;;15.10;90.90;;;;;;5013578;28;20517;-72
2020/12/22 12:46:18;;;;;;;1.00;0.47;;;15.00;91.00;;;;;;5013464;28;20439;-72
2020/12/22 12:48:45;;;;;;;0.47;0.40;;;15.10;91.20;;;;;;5013434;28;20490;-72